KELN/ELN METAR and TAF weather

Enter ICAO airport designator
Station Type Date Time Source
KELN METAR 2020/07/06 18:53 UTC NOAA

KELN 061853Z AUTO 28009KT 10SM CLR 25/07 A2994 RMK AO2 SLP128 T02500072


Station Type Date Time Source
KELN Decoded METAR 2020/07/06 18:53 UTC NOAA

ELLENSBURG BOWERS FIELD, WA, United States (KELN) 47-02N 120-32W 519M
Jul 06, 2020 - 02:53 PM EDT / 2020.07.06 1853 UTC
Wind: from the W (280 degrees) at 10 MPH (9 KT):0
Visibility: 10 mile(s):0
Sky conditions: clear
Temperature: 77.0 F (25.0 C)
Dew Point: 45.0 F (7.2 C)
Relative Humidity: 32%
Pressure (altimeter): 29.94 in. Hg (1013 hPa)
ob: KELN 061853Z AUTO 28009KT 10SM CLR 25/07 A2994 RMK AO2 SLP128 T02500072
cycle: 19

Station Type Date Time Source
KELN TAF UTC NOAA

Error!

Example: see airport list